sensor_id;sensor_type;location;lat;lon;timestamp;pressure;altitude;pressure_sealevel;temperature;humidity
29909;BME280;36247;51.952;6.146;2023-05-19T00:01:40;102626.53;;;8.68;100.00
29909;BME280;36247;51.952;6.146;2023-05-19T00:04:09;102621.41;;;8.71;100.00
29909;BME280;36247;51.952;6.146;2023-05-19T00:06:37;102621.19;;;8.66;100.00
29909;BME280;36247;51.952;6.146;2023-05-19T00:09:07;102620.31;;;8.67;100.00
29909;BME280;36247;51.952;6.146;2023-05-19T00:11:36;102619.78;;;8.56;100.00
29909;BME280;36247;51.952;6.146;2023-05-19T00:14:06;102616.66;;;8.99;100.00
29909;BME280;36247;51.952;6.146;2023-05-19T00:16:34;102619.66;;;8.89;100.00
29909;BME280;36247;51.952;6.146;2023-05-19T00:19:02;102622.75;;;8.62;100.00
29909;BME280;36247;51.952;6.146;2023-05-19T00:21:29;102621.63;;;8.75;100.00
29909;BME280;36247;51.952;6.146;2023-05-19T00:23:55;102618.66;;;8.51;100.00
29909;BME280;36247;51.952;6.146;2023-05-19T00:26:21;102627.50;;;8.70;100.00
29909;BME280;36247;51.952;6.146;2023-05-19T00:28:57;102622.81;;;8.82;100.00
29909;BME280;36247;51.952;6.146;2023-05-19T00:31:23;102627.34;;;8.32;100.00
29909;BME280;36247;51.952;6.146;2023-05-19T00:33:49;102627.25;;;8.47;100.00
29909;BME280;36247;51.952;6.146;2023-05-19T00:36:17;102624.53;;;8.29;100.00
29909;BME280;36247;51.952;6.146;2023-05-19T00:38:43;102623.91;;;8.17;100.00
29909;BME280;36247;51.952;6.146;2023-05-19T00:41:08;102626.72;;;8.20;100.00
29909;BME280;36247;51.952;6.146;2023-05-19T00:43:35;102633.53;;;8.16;100.00
29909;BME280;36247;51.952;6.146;2023-05-19T00:46:01;102625.78;;;8.19;100.00
29909;BME280;36247;51.952;6.146;2023-05-19T00:48:27;102618.53;;;8.32;100.00
29909;BME280;36247;51.952;6.146;2023-05-19T00:50:58;102624.06;;;8.20;100.00
29909;BME280;36247;51.952;6.146;2023-05-19T00:53:32;102612.59;;;8.03;100.00
29909;BME280;36247;51.952;6.146;2023-05-19T00:55:59;102608.03;;;8.33;100.00
29909;BME280;36247;51.952;6.146;2023-05-19T00:58:24;102599.63;;;8.24;100.00
29909;BME280;36247;51.952;6.146;2023-05-19T01:00:58;102602.13;;;8.04;100.00
29909;BME280;36247;51.952;6.146;2023-05-19T01:03:29;102604.06;;;8.25;100.00
29909;BME280;36247;51.952;6.146;2023-05-19T01:05:55;102603.22;;;8.08;100.00
29909;BME280;36247;51.952;6.146;2023-05-19T01:08:20;102602.72;;;8.15;100.00
29909;BME280;36247;51.952;6.146;2023-05-19T01:10:47;102594.81;;;7.82;100.00
29909;BME280;36247;51.952;6.146;2023-05-19T01:13:12;102606.69;;;7.90;100.00
29909;BME280;36247;51.952;6.146;2023-05-19T01:18:39;102606.13;;;7.96;100.00
29909;BME280;36247;51.952;6.146;2023-05-19T01:32:43;102606.94;;;8.29;100.00
29909;BME280;36247;51.952;6.146;2023-05-19T01:35:11;102608.75;;;7.96;100.00
29909;BME280;36247;51.952;6.146;2023-05-19T01:37:38;102603.81;;;7.86;100.00
29909;BME280;36247;51.952;6.146;2023-05-19T01:40:08;102611.81;;;7.71;100.00
29909;BME280;36247;51.952;6.146;2023-05-19T01:42:36;102613.19;;;7.81;100.00
29909;BME280;36247;51.952;6.146;2023-05-19T01:45:06;102613.88;;;7.93;100.00
29909;BME280;36247;51.952;6.146;2023-05-19T01:47:40;102621.38;;;7.69;100.00
29909;BME280;36247;51.952;6.146;2023-05-19T01:50:06;102617.16;;;7.89;100.00
29909;BME280;36247;51.952;6.146;2023-05-19T01:52:32;102614.53;;;7.89;100.00
29909;BME280;36247;51.952;6.146;2023-05-19T01:54:58;102619.06;;;7.75;100.00
29909;BME280;36247;51.952;6.146;2023-05-19T02:02:54;102596.88;;;7.88;100.00
29909;BME280;36247;51.952;6.146;2023-05-19T02:05:22;102606.53;;;7.71;100.00
29909;BME280;36247;51.952;6.146;2023-05-19T02:10:36;102600.44;;;7.88;100.00
29909;BME280;36247;51.952;6.146;2023-05-19T02:13:10;102603.72;;;7.68;100.00
29909;BME280;36247;51.952;6.146;2023-05-19T02:15:40;102600.00;;;7.81;100.00
29909;BME280;36247;51.952;6.146;2023-05-19T02:18:09;102597.19;;;7.61;100.00
29909;BME280;36247;51.952;6.146;2023-05-19T02:20:40;102593.81;;;7.64;100.00
29909;BME280;36247;51.952;6.146;2023-05-19T02:23:09;102597.13;;;7.76;100.00
29909;BME280;36247;51.952;6.146;2023-05-19T02:25:35;102590.69;;;7.54;100.00
29909;BME280;36247;51.952;6.146;2023-05-19T02:28:00;102587.72;;;7.48;100.00
29909;BME280;36247;51.952;6.146;2023-05-19T02:30:28;102591.91;;;7.45;100.00
29909;BME280;36247;51.952;6.146;2023-05-19T02:32:58;102590.78;;;7.56;100.00
29909;BME280;36247;51.952;6.146;2023-05-19T02:35:24;102594.31;;;7.56;100.00
29909;BME280;36247;51.952;6.146;2023-05-19T02:37:50;102591.34;;;7.34;100.00
29909;BME280;36247;51.952;6.146;2023-05-19T02:40:17;102590.91;;;7.26;100.00
29909;BME280;36247;51.952;6.146;2023-05-19T02:42:44;102586.00;;;7.49;100.00
29909;BME280;36247;51.952;6.146;2023-05-19T02:45:10;102588.59;;;7.16;100.00
29909;BME280;36247;51.952;6.146;2023-05-19T02:47:39;102590.06;;;7.58;100.00
29909;BME280;36247;51.952;6.146;2023-05-19T02:50:06;102587.25;;;7.55;100.00
29909;BME280;36247;51.952;6.146;2023-05-19T02:52:32;102586.97;;;7.51;100.00
29909;BME280;36247;51.952;6.146;2023-05-19T02:54:59;102573.47;;;7.61;100.00
29909;BME280;36247;51.952;6.146;2023-05-19T02:57:24;102581.03;;;7.38;100.00
29909;BME280;36247;51.952;6.146;2023-05-19T02:59:51;102587.41;;;7.42;100.00
29909;BME280;36247;51.952;6.146;2023-05-19T03:02:18;102585.13;;;7.17;100.00
29909;BME280;36247;51.952;6.146;2023-05-19T03:04:43;102574.19;;;7.26;100.00
29909;BME280;36247;51.952;6.146;2023-05-19T03:07:09;102576.75;;;7.24;100.00
29909;BME280;36247;51.952;6.146;2023-05-19T03:09:37;102585.91;;;7.47;100.00
29909;BME280;36247;51.952;6.146;2023-05-19T03:12:06;102571.66;;;6.96;100.00
29909;BME280;36247;51.952;6.146;2023-05-19T03:14:33;102577.41;;;7.36;100.00
29909;BME280;36247;51.952;6.146;2023-05-19T03:17:06;102580.44;;;7.28;100.00
29909;BME280;36247;51.952;6.146;2023-05-19T03:19:32;102576.75;;;7.24;100.00
29909;BME280;36247;51.952;6.146;2023-05-19T03:21:58;102580.53;;;7.29;100.00
29909;BME280;36247;51.952;6.146;2023-05-19T03:24:23;102578.28;;;7.20;100.00
29909;BME280;36247;51.952;6.146;2023-05-19T03:26:49;102576.81;;;7.09;100.00
29909;BME280;36247;51.952;6.146;2023-05-19T03:29:15;102575.50;;;7.17;100.00
29909;BME280;36247;51.952;6.146;2023-05-19T03:31:43;102574.38;;;6.97;100.00
29909;BME280;36247;51.952;6.146;2023-05-19T03:34:08;102579.66;;;6.97;100.00
29909;BME280;36247;51.952;6.146;2023-05-19T03:36:35;102579.31;;;7.07;100.00
29909;BME280;36247;51.952;6.146;2023-05-19T03:39:07;102573.94;;;6.89;100.00
29909;BME280;36247;51.952;6.146;2023-05-19T03:41:35;102584.66;;;6.93;100.00
29909;BME280;36247;51.952;6.146;2023-05-19T03:44:01;102586.06;;;6.71;100.00
29909;BME280;36247;51.952;6.146;2023-05-19T03:46:27;102580.84;;;6.87;100.00
29909;BME280;36247;51.952;6.146;2023-05-19T03:48:52;102579.19;;;6.89;100.00
29909;BME280;36247;51.952;6.146;2023-05-19T03:51:38;102582.03;;;6.93;100.00
29909;BME280;36247;51.952;6.146;2023-05-19T03:54:19;102587.72;;;7.00;100.00
29909;BME280;36247;51.952;6.146;2023-05-19T03:56:47;102591.66;;;6.92;100.00
29909;BME280;36247;51.952;6.146;2023-05-19T03:59:13;102585.34;;;7.05;100.00
29909;BME280;36247;51.952;6.146;2023-05-19T04:01:38;102585.56;;;7.24;100.00
29909;BME280;36247;51.952;6.146;2023-05-19T04:04:06;102591.09;;;7.29;100.00
29909;BME280;36247;51.952;6.146;2023-05-19T04:06:32;102591.69;;;7.09;100.00
29909;BME280;36247;51.952;6.146;2023-05-19T04:08:58;102596.03;;;7.23;100.00
29909;BME280;36247;51.952;6.146;2023-05-19T04:11:24;102594.91;;;7.19;100.00
29909;BME280;36247;51.952;6.146;2023-05-19T04:13:50;102602.28;;;7.25;100.00
29909;BME280;36247;51.952;6.146;2023-05-19T04:16:17;102599.75;;;7.43;100.00
29909;BME280;36247;51.952;6.146;2023-05-19T04:18:43;102602.19;;;7.23;100.00
29909;BME280;36247;51.952;6.146;2023-05-19T04:21:10;102603.69;;;7.35;100.00
29909;BME280;36247;51.952;6.146;2023-05-19T04:23:36;102599.28;;;7.67;100.00
29909;BME280;36247;51.952;6.146;2023-05-19T04:26:02;102605.63;;;7.54;100.00
29909;BME280;36247;51.952;6.146;2023-05-19T04:28:31;102601.16;;;7.53;100.00
29909;BME280;36247;51.952;6.146;2023-05-19T04:31:00;102597.97;;;7.58;100.00
29909;BME280;36247;51.952;6.146;2023-05-19T04:33:27;102597.38;;;7.64;100.00
29909;BME280;36247;51.952;6.146;2023-05-19T04:35:53;102599.91;;;7.79;100.00
29909;BME280;36247;51.952;6.146;2023-05-19T04:38:19;102591.03;;;7.44;100.00
29909;BME280;36247;51.952;6.146;2023-05-19T04:40:50;102590.63;;;7.69;100.00
29909;BME280;36247;51.952;6.146;2023-05-19T04:43:18;102590.78;;;7.72;100.00
29909;BME280;36247;51.952;6.146;2023-05-19T04:45:44;102590.38;;;7.65;100.00
29909;BME280;36247;51.952;6.146;2023-05-19T04:48:10;102589.88;;;7.55;100.00
29909;BME280;36247;51.952;6.146;2023-05-19T04:50:36;102586.66;;;7.77;100.00
29909;BME280;36247;51.952;6.146;2023-05-19T04:53:09;102594.31;;;7.73;100.00
29909;BME280;36247;51.952;6.146;2023-05-19T04:55:36;102587.16;;;7.87;100.00
29909;BME280;36247;51.952;6.146;2023-05-19T04:58:05;102586.13;;;8.01;100.00
29909;BME280;36247;51.952;6.146;2023-05-19T05:00:32;102588.13;;;8.05;100.00
29909;BME280;36247;51.952;6.146;2023-05-19T05:03:05;102583.19;;;7.95;100.00
29909;BME280;36247;51.952;6.146;2023-05-19T05:05:35;102582.34;;;8.12;100.00
29909;BME280;36247;51.952;6.146;2023-05-19T05:08:00;102576.81;;;8.08;100.00
29909;BME280;36247;51.952;6.146;2023-05-19T05:10:30;102587.06;;;8.02;100.00
29909;BME280;36247;51.952;6.146;2023-05-19T05:12:56;102576.28;;;8.32;100.00
29909;BME280;36247;51.952;6.146;2023-05-19T05:15:22;102580.84;;;8.52;100.00
29909;BME280;36247;51.952;6.146;2023-05-19T05:17:49;102579.88;;;8.34;100.00
29909;BME280;36247;51.952;6.146;2023-05-19T05:20:16;102590.00;;;8.42;100.00
29909;BME280;36247;51.952;6.146;2023-05-19T05:22:44;102587.28;;;8.57;100.00
29909;BME280;36247;51.952;6.146;2023-05-19T05:25:11;102582.44;;;8.49;100.00
29909;BME280;36247;51.952;6.146;2023-05-19T05:27:37;102582.13;;;8.60;100.00
29909;BME280;36247;51.952;6.146;2023-05-19T05:30:05;102582.66;;;8.71;100.00
29909;BME280;36247;51.952;6.146;2023-05-19T05:32:31;102586.28;;;8.39;100.00
29909;BME280;36247;51.952;6.146;2023-05-19T05:34:58;102583.34;;;8.85;100.00
29909;BME280;36247;51.952;6.146;2023-05-19T05:37:24;102585.59;;;8.95;100.00
29909;BME280;36247;51.952;6.146;2023-05-19T05:39:50;102586.13;;;8.88;100.00
29909;BME280;36247;51.952;6.146;2023-05-19T05:42:17;102584.78;;;8.78;100.00
29909;BME280;36247;51.952;6.146;2023-05-19T05:44:44;102585.59;;;8.95;100.00
29909;BME280;36247;51.952;6.146;2023-05-19T05:47:10;102584.59;;;9.11;100.00
29909;BME280;36247;51.952;6.146;2023-05-19T05:49:37;102590.28;;;9.39;100.00
29909;BME280;36247;51.952;6.146;2023-05-19T05:52:10;102579.84;;;9.42;100.00
29909;BME280;36247;51.952;6.146;2023-05-19T05:54:42;102591.03;;;9.54;100.00
29909;BME280;36247;51.952;6.146;2023-05-19T05:57:09;102586.47;;;9.32;100.00
29909;BME280;36247;51.952;6.146;2023-05-19T05:59:35;102596.53;;;9.21;100.00
29909;BME280;36247;51.952;6.146;2023-05-19T06:02:00;102590.69;;;9.28;100.00
29909;BME280;36247;51.952;6.146;2023-05-19T06:04:27;102592.38;;;9.46;100.00
29909;BME280;36247;51.952;6.146;2023-05-19T06:06:53;102580.28;;;9.51;100.00
29909;BME280;36247;51.952;6.146;2023-05-19T06:09:25;102584.25;;;9.61;100.00
29909;BME280;36247;51.952;6.146;2023-05-19T06:11:50;102584.81;;;9.73;100.00
29909;BME280;36247;51.952;6.146;2023-05-19T06:14:18;102580.94;;;10.05;100.00
29909;BME280;36247;51.952;6.146;2023-05-19T06:17:11;102581.22;;;10.12;100.00
29909;BME280;36247;51.952;6.146;2023-05-19T06:19:36;102575.03;;;10.32;100.00
29909;BME280;36247;51.952;6.146;2023-05-19T06:22:02;102573.34;;;10.54;100.00
29909;BME280;36247;51.952;6.146;2023-05-19T06:24:30;102568.03;;;10.75;100.00
29909;BME280;36247;51.952;6.146;2023-05-19T06:26:55;102569.75;;;10.74;100.00
29909;BME280;36247;51.952;6.146;2023-05-19T06:29:21;102576.44;;;10.65;100.00
29909;BME280;36247;51.952;6.146;2023-05-19T06:31:48;102571.44;;;10.72;100.00
29909;BME280;36247;51.952;6.146;2023-05-19T06:34:15;102571.13;;;11.08;100.00
29909;BME280;36247;51.952;6.146;2023-05-19T06:36:43;102574.41;;;11.25;100.00
29909;BME280;36247;51.952;6.146;2023-05-19T06:39:11;102574.91;;;11.38;100.00
29909;BME280;36247;51.952;6.146;2023-05-19T06:41:37;102570.91;;;11.49;100.00
29909;BME280;36247;51.952;6.146;2023-05-19T06:44:05;102569.44;;;11.57;100.00
29909;BME280;36247;51.952;6.146;2023-05-19T06:46:32;102564.69;;;11.49;100.00
29909;BME280;36247;51.952;6.146;2023-05-19T06:48:58;102567.25;;;11.70;100.00
29909;BME280;36247;51.952;6.146;2023-05-19T06:51:26;102567.53;;;11.77;100.00
29909;BME280;36247;51.952;6.146;2023-05-19T06:53:54;102564.72;;;11.97;100.00
29909;BME280;36247;51.952;6.146;2023-05-19T06:56:21;102563.94;;;11.99;100.00
29909;BME280;36247;51.952;6.146;2023-05-19T06:58:47;102562.19;;;12.26;100.00
29909;BME280;36247;51.952;6.146;2023-05-19T07:01:13;102573.69;;;12.52;100.00
29909;BME280;36247;51.952;6.146;2023-05-19T07:03:44;102568.19;;;12.46;100.00
29909;BME280;36247;51.952;6.146;2023-05-19T07:06:11;102566.22;;;12.40;100.00
29909;BME280;36247;51.952;6.146;2023-05-19T07:08:37;102560.88;;;12.66;100.00
29909;BME280;36247;51.952;6.146;2023-05-19T07:11:06;102561.38;;;12.81;100.00
29909;BME280;36247;51.952;6.146;2023-05-19T07:13:31;102556.94;;;12.82;100.00
29909;BME280;36247;51.952;6.146;2023-05-19T07:15:57;102559.66;;;12.83;100.00
29909;BME280;36247;51.952;6.146;2023-05-19T07:18:24;102555.63;;;12.96;100.00
29909;BME280;36247;51.952;6.146;2023-05-19T07:20:51;102553.03;;;13.28;100.00
29909;BME280;36247;51.952;6.146;2023-05-19T07:23:19;102548.88;;;13.35;100.00
29909;BME280;36247;51.952;6.146;2023-05-19T07:25:46;102549.66;;;13.63;100.00
29909;BME280;36247;51.952;6.146;2023-05-19T07:28:12;102548.72;;;13.61;100.00
29909;BME280;36247;51.952;6.146;2023-05-19T07:30:38;102552.34;;;13.64;100.00
29909;BME280;36247;51.952;6.146;2023-05-19T07:33:05;102553.88;;;13.86;100.00
29909;BME280;36247;51.952;6.146;2023-05-19T07:35:31;102549.13;;;14.08;100.00
29909;BME280;36247;51.952;6.146;2023-05-19T07:37:56;102547.97;;;14.32;100.00
29909;BME280;36247;51.952;6.146;2023-05-19T07:40:22;102549.88;;;14.37;100.00
29909;BME280;36247;51.952;6.146;2023-05-19T07:42:48;102542.91;;;14.42;100.00
29909;BME280;36247;51.952;6.146;2023-05-19T07:45:14;102546.34;;;14.73;100.00
29909;BME280;36247;51.952;6.146;2023-05-19T07:47:40;102547.91;;;14.63;100.00
29909;BME280;36247;51.952;6.146;2023-05-19T07:50:06;102542.28;;;14.89;100.00
29909;BME280;36247;51.952;6.146;2023-05-19T07:52:31;102545.59;;;15.17;100.00
29909;BME280;36247;51.952;6.146;2023-05-19T07:54:58;102554.28;;;15.08;100.00
29909;BME280;36247;51.952;6.146;2023-05-19T07:57:23;102547.00;;;15.01;100.00
29909;BME280;36247;51.952;6.146;2023-05-19T07:59:49;102548.75;;;14.99;100.00
29909;BME280;36247;51.952;6.146;2023-05-19T08:02:14;102554.97;;;14.99;100.00
29909;BME280;36247;51.952;6.146;2023-05-19T08:04:40;102544.69;;;15.18;100.00
29909;BME280;36247;51.952;6.146;2023-05-19T08:07:06;102539.78;;;15.37;100.00
29909;BME280;36247;51.952;6.146;2023-05-19T08:09:31;102527.19;;;15.75;100.00
29909;BME280;36247;51.952;6.146;2023-05-19T08:11:57;102527.22;;;15.77;100.00
29909;BME280;36247;51.952;6.146;2023-05-19T08:14:22;102523.34;;;16.05;100.00
29909;BME280;36247;51.952;6.146;2023-05-19T08:16:52;102529.53;;;16.04;100.00
29909;BME280;36247;51.952;6.146;2023-05-19T08:19:18;102535.03;;;16.12;100.00
29909;BME280;36247;51.952;6.146;2023-05-19T08:21:43;102529.72;;;16.15;100.00
29909;BME280;36247;51.952;6.146;2023-05-19T08:24:09;102529.22;;;16.37;100.00
29909;BME280;36247;51.952;6.146;2023-05-19T08:26:35;102525.47;;;16.26;100.00
29909;BME280;36247;51.952;6.146;2023-05-19T08:29:01;102522.25;;;16.46;100.00
29909;BME280;36247;51.952;6.146;2023-05-19T08:31:26;102520.34;;;16.38;100.00
29909;BME280;36247;51.952;6.146;2023-05-19T08:33:52;102517.50;;;16.86;100.00
29909;BME280;36247;51.952;6.146;2023-05-19T08:36:18;102509.69;;;17.00;100.00
29909;BME280;36247;51.952;6.146;2023-05-19T08:38:43;102496.44;;;17.10;100.00
29909;BME280;36247;51.952;6.146;2023-05-19T08:41:09;102498.31;;;17.16;100.00
29909;BME280;36247;51.952;6.146;2023-05-19T08:43:37;102491.28;;;17.23;100.00
29909;BME280;36247;51.952;6.146;2023-05-19T08:46:06;102493.34;;;17.47;100.00
29909;BME280;36247;51.952;6.146;2023-05-19T08:48:35;102489.09;;;17.66;100.00
29909;BME280;36247;51.952;6.146;2023-05-19T08:53:49;102484.78;;;17.85;100.00
29909;BME280;36247;51.952;6.146;2023-05-19T08:56:22;102479.63;;;17.22;98.16
29909;BME280;36247;51.952;6.146;2023-05-19T08:58:50;102477.28;;;17.49;100.00
29909;BME280;36247;51.952;6.146;2023-05-19T09:01:17;102479.63;;;17.21;99.23
29909;BME280;36247;51.952;6.146;2023-05-19T09:03:44;102479.47;;;16.47;97.60
29909;BME280;36247;51.952;6.146;2023-05-19T09:06:10;102471.91;;;17.49;95.20
29909;BME280;36247;51.952;6.146;2023-05-19T09:08:40;102471.16;;;17.60;93.70
29909;BME280;36247;51.952;6.146;2023-05-19T09:11:07;102462.78;;;18.15;87.16
29909;BME280;36247;51.952;6.146;2023-05-19T09:13:35;102469.13;;;18.30;85.33
29909;BME280;36247;51.952;6.146;2023-05-19T09:16:02;102467.44;;;18.41;82.52
29909;BME280;36247;51.952;6.146;2023-05-19T09:18:28;102473.28;;;17.94;85.45
29909;BME280;36247;51.952;6.146;2023-05-19T09:21:00;102473.72;;;18.45;78.78
29909;BME280;36247;51.952;6.146;2023-05-19T09:23:32;102475.63;;;18.66;74.94
29909;BME280;36247;51.952;6.146;2023-05-19T09:26:06;102471.59;;;18.02;60.99
29909;BME280;36247;51.952;6.146;2023-05-19T09:28:33;102468.53;;;18.74;63.15
29909;BME280;36247;51.952;6.146;2023-05-19T09:31:10;102462.59;;;19.46;64.29
29909;BME280;36247;51.952;6.146;2023-05-19T09:33:37;102463.97;;;18.58;73.95
29909;BME280;36247;51.952;6.146;2023-05-19T09:36:03;102449.94;;;19.03;73.38
29909;BME280;36247;51.952;6.146;2023-05-19T09:38:38;102465.88;;;17.68;67.70
29909;BME280;36247;51.952;6.146;2023-05-19T09:41:06;102457.94;;;18.96;72.71
29909;BME280;36247;51.952;6.146;2023-05-19T09:43:35;102446.53;;;19.63;71.48
29909;BME280;36247;51.952;6.146;2023-05-19T09:46:07;102455.09;;;18.71;63.90
29909;BME280;36247;51.952;6.146;2023-05-19T09:48:35;102448.28;;;19.41;65.77
29909;BME280;36247;51.952;6.146;2023-05-19T09:51:07;102442.03;;;19.61;56.34
29909;BME280;36247;51.952;6.146;2023-05-19T09:53:35;102445.53;;;19.26;60.53
29909;BME280;36247;51.952;6.146;2023-05-19T09:56:01;102439.44;;;19.92;56.39
29909;BME280;36247;51.952;6.146;2023-05-19T09:58:32;102443.91;;;20.06;59.71
29909;BME280;36247;51.952;6.146;2023-05-19T10:01:02;102440.28;;;19.77;62.51
29909;BME280;36247;51.952;6.146;2023-05-19T10:03:28;102443.66;;;19.01;55.68
29909;BME280;36247;51.952;6.146;2023-05-19T10:05:55;102432.16;;;20.54;54.82
29909;BME280;36247;51.952;6.146;2023-05-19T10:08:22;102433.56;;;21.57;58.41
29909;BME280;36247;51.952;6.146;2023-05-19T10:10:50;102433.88;;;21.00;56.07
29909;BME280;36247;51.952;6.146;2023-05-19T10:13:16;102446.59;;;20.28;58.73
29909;BME280;36247;51.952;6.146;2023-05-19T10:15:43;102443.75;;;20.90;59.52
29909;BME280;36247;51.952;6.146;2023-05-19T10:18:14;102424.88;;;21.01;57.46
29909;BME280;36247;51.952;6.146;2023-05-19T10:20:42;102434.19;;;21.96;46.59
29909;BME280;36247;51.952;6.146;2023-05-19T10:23:08;102429.63;;;22.93;51.33
29909;BME280;36247;51.952;6.146;2023-05-19T10:25:35;102437.09;;;21.70;53.60
29909;BME280;36247;51.952;6.146;2023-05-19T10:28:12;102429.09;;;21.53;52.50
29909;BME280;36247;51.952;6.146;2023-05-19T10:30:44;102425.63;;;21.34;54.09
29909;BME280;36247;51.952;6.146;2023-05-19T10:33:17;102425.16;;;22.00;54.95
29909;BME280;36247;51.952;6.146;2023-05-19T10:38:59;102413.63;;;21.84;55.79
29909;BME280;36247;51.952;6.146;2023-05-19T10:41:45;102410.78;;;22.85;51.95
29909;BME280;36247;51.952;6.146;2023-05-19T10:44:22;102403.53;;;22.92;54.08
29909;BME280;36247;51.952;6.146;2023-05-19T10:46:52;102412.19;;;22.45;51.98
29909;BME280;36247;51.952;6.146;2023-05-19T10:49:21;102407.03;;;22.98;51.73
29909;BME280;36247;51.952;6.146;2023-05-19T10:51:47;102414.09;;;22.29;53.11
29909;BME280;36247;51.952;6.146;2023-05-19T10:54:13;102413.19;;;22.27;50.12
29909;BME280;36247;51.952;6.146;2023-05-19T10:56:43;102412.84;;;22.63;48.84
29909;BME280;36247;51.952;6.146;2023-05-19T10:59:32;102408.22;;;21.79;53.53
29909;BME280;36247;51.952;6.146;2023-05-19T11:02:07;102405.97;;;22.34;49.29
29909;BME280;36247;51.952;6.146;2023-05-19T11:04:45;102403.47;;;22.11;49.12
29909;BME280;36247;51.952;6.146;2023-05-19T11:07:19;102402.09;;;22.58;50.87
29909;BME280;36247;51.952;6.146;2023-05-19T11:09:50;102409.19;;;21.75;52.62
29909;BME280;36247;51.952;6.146;2023-05-19T11:12:22;102403.03;;;22.56;52.81
29909;BME280;36247;51.952;6.146;2023-05-19T11:14:53;102400.19;;;23.39;47.82
29909;BME280;36247;51.952;6.146;2023-05-19T11:17:19;102394.50;;;24.13;49.69
29909;BME280;36247;51.952;6.146;2023-05-19T11:19:55;102392.59;;;23.65;48.25
29909;BME280;36247;51.952;6.146;2023-05-19T11:22:25;102403.22;;;22.40;46.64
29909;BME280;36247;51.952;6.146;2023-05-19T11:24:53;102402.03;;;22.64;48.60
29909;BME280;36247;51.952;6.146;2023-05-19T11:27:32;102393.41;;;23.68;46.45
29909;BME280;36247;51.952;6.146;2023-05-19T11:30:09;102387.38;;;22.84;48.27
29909;BME280;36247;51.952;6.146;2023-05-19T11:32:39;102395.19;;;23.07;46.13
29909;BME280;36247;51.952;6.146;2023-05-19T11:35:08;102391.38;;;22.52;49.94
29909;BME280;36247;51.952;6.146;2023-05-19T11:37:35;102387.75;;;23.85;44.75
29909;BME280;36247;51.952;6.146;2023-05-19T11:40:02;102382.63;;;23.03;47.04
29909;BME280;36247;51.952;6.146;2023-05-19T11:42:32;102395.00;;;21.50;47.10
29909;BME280;36247;51.952;6.146;2023-05-19T11:45:00;102382.25;;;22.64;48.59
29909;BME280;36247;51.952;6.146;2023-05-19T11:47:26;102380.09;;;22.91;49.23
29909;BME280;36247;51.952;6.146;2023-05-19T11:49:53;102383.50;;;23.67;47.12
29909;BME280;36247;51.952;6.146;2023-05-19T11:52:23;102384.31;;;24.25;43.50
29909;BME280;36247;51.952;6.146;2023-05-19T11:54:49;102382.34;;;24.35;45.86
29909;BME280;36247;51.952;6.146;2023-05-19T11:57:16;102371.81;;;24.67;43.78
29909;BME280;36247;51.952;6.146;2023-05-19T11:59:43;102379.31;;;23.48;42.74
29909;BME280;36247;51.952;6.146;2023-05-19T12:04:38;102373.88;;;20.39;48.38
29909;BME280;36247;51.952;6.146;2023-05-19T12:07:06;102370.81;;;22.39;46.79
29909;BME280;36247;51.952;6.146;2023-05-19T12:09:32;102368.31;;;24.13;47.48
29909;BME280;36247;51.952;6.146;2023-05-19T12:11:58;102367.09;;;23.80;45.86
29909;BME280;36247;51.952;6.146;2023-05-19T12:14:25;102369.44;;;24.01;45.86
29909;BME280;36247;51.952;6.146;2023-05-19T12:16:51;102369.59;;;24.40;44.88
29909;BME280;36247;51.952;6.146;2023-05-19T12:19:17;102362.22;;;25.33;43.33
29909;BME280;36247;51.952;6.146;2023-05-19T12:21:43;102366.66;;;24.96;44.69
29909;BME280;36247;51.952;6.146;2023-05-19T12:24:09;102364.16;;;25.26;43.53
29909;BME280;36247;51.952;6.146;2023-05-19T12:26:35;102359.38;;;26.11;41.40
29909;BME280;36247;51.952;6.146;2023-05-19T12:29:06;102359.97;;;26.21;39.69
29909;BME280;36247;51.952;6.146;2023-05-19T12:31:32;102358.50;;;25.73;40.89
29909;BME280;36247;51.952;6.146;2023-05-19T12:34:02;102347.09;;;25.59;41.72
29909;BME280;36247;51.952;6.146;2023-05-19T12:36:27;102328.41;;;26.80;40.79
29909;BME280;36247;51.952;6.146;2023-05-19T12:38:54;102347.09;;;25.59;42.46
29909;BME280;36247;51.952;6.146;2023-05-19T12:41:19;102357.41;;;22.29;44.88
29909;BME280;36247;51.952;6.146;2023-05-19T12:43:46;102349.75;;;24.40;45.67
29909;BME280;36247;51.952;6.146;2023-05-19T12:46:12;102344.84;;;25.01;46.75
29909;BME280;36247;51.952;6.146;2023-05-19T12:48:42;102352.00;;;23.04;48.11
29909;BME280;36247;51.952;6.146;2023-05-19T12:51:09;102349.53;;;23.49;45.08
29909;BME280;36247;51.952;6.146;2023-05-19T12:53:36;102348.94;;;24.33;44.20
29909;BME280;36247;51.952;6.146;2023-05-19T12:56:12;102350.56;;;24.89;41.89
29909;BME280;36247;51.952;6.146;2023-05-19T12:58:39;102329.00;;;26.28;39.25
29909;BME280;36247;51.952;6.146;2023-05-19T13:01:06;102331.91;;;27.95;35.84
29909;BME280;36247;51.952;6.146;2023-05-19T13:03:39;102329.59;;;24.53;40.63
29909;BME280;36247;51.952;6.146;2023-05-19T13:06:13;102330.00;;;24.33;40.51
29909;BME280;36247;51.952;6.146;2023-05-19T13:08:40;102329.28;;;25.09;45.32
29909;BME280;36247;51.952;6.146;2023-05-19T13:11:06;102327.38;;;24.75;43.52
29909;BME280;36247;51.952;6.146;2023-05-19T13:13:32;102334.88;;;23.03;45.13
29909;BME280;36247;51.952;6.146;2023-05-19T13:15:58;102335.84;;;22.26;45.93
29909;BME280;36247;51.952;6.146;2023-05-19T13:18:23;102329.88;;;22.76;46.15
29909;BME280;36247;51.952;6.146;2023-05-19T13:20:51;102328.97;;;23.93;43.51
29909;BME280;36247;51.952;6.146;2023-05-19T13:23:18;102315.50;;;25.58;42.22